createdAt,value
2024-01-11T00:01:48.768Z,80.54
2024-01-11T00:04:15.767Z,79.49
2024-01-11T00:06:46.475Z,79.69
2024-01-11T00:09:13.639Z,79.58
2024-01-11T00:11:40.574Z,80.00
2024-01-11T00:14:08.468Z,81.25
2024-01-11T00:16:35.556Z,81.29
2024-01-11T00:19:02.463Z,81.73
2024-01-11T00:21:29.223Z,81.18
2024-01-11T00:23:55.931Z,81.24
2024-01-11T00:26:22.700Z,81.00
2024-01-11T00:28:49.666Z,81.34
2024-01-11T00:31:16.555Z,81.02
2024-01-11T00:33:43.416Z,81.26
2024-01-11T00:36:10.254Z,80.96
2024-01-11T00:38:37.210Z,80.31
2024-01-11T00:41:04.194Z,80.52
2024-01-11T00:43:31.123Z,80.87
2024-01-11T00:45:57.934Z,82.45
2024-01-11T00:48:24.894Z,80.92
2024-01-11T00:50:51.636Z,80.93
2024-01-11T00:53:18.451Z,80.24
2024-01-11T00:55:45.486Z,79.89
2024-01-11T00:58:12.198Z,79.13
2024-01-11T01:00:42.009Z,79.93
2024-01-11T01:03:08.759Z,79.14
2024-01-11T01:05:35.524Z,79.05
2024-01-11T01:08:02.435Z,78.92
2024-01-11T01:10:29.207Z,79.30
2024-01-11T01:12:55.943Z,81.27
2024-01-11T01:15:22.748Z,79.69
2024-01-11T01:17:49.615Z,80.16
2024-01-11T01:20:16.584Z,80.73
2024-01-11T01:22:43.352Z,82.02
2024-01-11T01:25:10.150Z,82.21
2024-01-11T01:27:36.900Z,84.30
2024-01-11T01:30:04.695Z,85.90
2024-01-11T01:32:31.615Z,84.60
2024-01-11T01:34:58.625Z,85.49
2024-01-11T01:37:25.387Z,85.40
2024-01-11T01:39:52.013Z,85.32
2024-01-11T01:42:18.734Z,87.08
2024-01-11T01:44:45.443Z,87.75
2024-01-11T01:47:12.592Z,89.11
2024-01-11T01:49:40.197Z,89.54
2024-01-11T01:52:08.843Z,88.65
2024-01-11T01:54:36.150Z,89.63
2024-01-11T01:57:04.471Z,89.40
2024-01-11T01:59:32.344Z,87.69
2024-01-11T02:01:59.791Z,88.30
2024-01-11T02:04:26.661Z,88.20
2024-01-11T02:06:55.124Z,89.40
2024-01-11T02:09:21.780Z,89.66
2024-01-11T02:11:49.124Z,88.05
2024-01-11T02:14:15.996Z,89.53
2024-01-11T02:16:42.686Z,89.30
2024-01-11T02:19:13.934Z,89.71
2024-01-11T02:21:44.592Z,89.91
2024-01-11T02:24:11.548Z,90.12
2024-01-11T02:26:58.226Z,90.94
2024-01-11T02:29:25.062Z,92.05
2024-01-11T02:31:51.891Z,91.82
2024-01-11T02:34:19.288Z,92.37
2024-01-11T02:36:46.483Z,93.16
2024-01-11T02:39:15.758Z,93.61
2024-01-11T02:41:43.261Z,94.92
2024-01-11T02:44:12.336Z,95.08
2024-01-11T02:46:39.141Z,94.69
2024-01-11T02:49:06.013Z,93.73
2024-01-11T02:51:32.755Z,94.67
2024-01-11T02:53:59.425Z,92.69
2024-01-11T02:56:26.130Z,92.95
2024-01-11T02:58:52.887Z,93.21
2024-01-11T03:01:19.682Z,93.66
2024-01-11T03:03:47.461Z,94.02
2024-01-11T03:06:14.266Z,93.64
2024-01-11T03:08:41.485Z,93.99
2024-01-11T03:11:08.211Z,95.02
2024-01-11T03:13:34.928Z,94.14
2024-01-11T03:16:01.708Z,94.31
2024-01-11T03:18:28.514Z,94.58
2024-01-11T03:20:55.233Z,93.56
2024-01-11T03:23:21.975Z,94.47
2024-01-11T03:25:48.670Z,94.36
2024-01-11T03:28:15.459Z,94.31
2024-01-11T03:30:42.323Z,94.91
2024-01-11T03:33:09.280Z,94.64
2024-01-11T03:35:36.533Z,94.07
2024-01-11T03:38:03.434Z,94.27
2024-01-11T03:40:30.142Z,93.64
2024-01-11T03:42:57.032Z,93.81
2024-01-11T03:45:23.734Z,93.75
2024-01-11T03:47:50.476Z,92.58
2024-01-11T03:50:17.471Z,93.51
2024-01-11T03:52:44.283Z,94.13
2024-01-11T03:55:10.938Z,93.92
2024-01-11T03:57:37.628Z,93.11
2024-01-11T04:00:10.804Z,94.55
2024-01-11T04:02:38.371Z,94.46
2024-01-11T04:05:05.731Z,94.68
2024-01-11T04:07:32.453Z,93.84
2024-01-11T04:09:59.202Z,94.30
2024-01-11T04:12:25.994Z,94.03
2024-01-11T04:14:52.790Z,94.85
2024-01-11T04:17:19.592Z,94.42
2024-01-11T04:19:46.346Z,93.57
2024-01-11T04:22:13.000Z,93.94
2024-01-11T04:24:39.721Z,93.16
2024-01-11T04:27:06.364Z,93.16
2024-01-11T04:29:33.052Z,92.25
2024-01-11T04:31:59.821Z,92.90
2024-01-11T04:34:26.783Z,92.99
2024-01-11T04:36:53.541Z,92.67
2024-01-11T04:39:20.325Z,92.25
2024-01-11T04:41:47.124Z,91.10
2024-01-11T04:44:13.903Z,92.46
2024-01-11T04:46:40.648Z,92.84
2024-01-11T04:49:07.475Z,92.71
2024-01-11T04:51:34.208Z,92.39
2024-01-11T04:54:00.871Z,91.24
2024-01-11T04:56:27.721Z,92.02
2024-01-11T04:58:54.529Z,91.79
2024-01-11T05:01:21.353Z,92.18
2024-01-11T05:03:50.386Z,92.48
2024-01-11T05:06:18.365Z,93.24
2024-01-11T05:08:46.178Z,93.35
2024-01-11T05:11:20.339Z,92.38
2024-01-11T05:13:47.729Z,92.81
2024-01-11T05:16:30.114Z,92.64
2024-01-11T05:19:01.418Z,93.52
2024-01-11T05:21:28.212Z,92.61
2024-01-11T05:23:55.113Z,94.68
2024-01-11T05:26:22.053Z,94.78
2024-01-11T05:28:49.191Z,95.05
2024-01-11T05:31:17.732Z,95.12
2024-01-11T05:33:45.388Z,94.61
2024-01-11T05:36:12.668Z,94.00
2024-01-11T05:38:40.600Z,94.62
2024-01-11T05:41:07.810Z,95.03
2024-01-11T05:43:34.577Z,94.22
2024-01-11T05:46:01.322Z,94.42
2024-01-11T05:48:28.086Z,94.03
2024-01-11T05:50:54.887Z,92.87
2024-01-11T05:53:21.667Z,92.92
2024-01-11T05:55:48.503Z,92.22
2024-01-11T05:58:15.224Z,92.97
2024-01-11T06:00:42.026Z,94.20
2024-01-11T06:03:09.459Z,94.10
2024-01-11T06:05:36.296Z,93.25
2024-01-11T06:08:03.144Z,93.19
2024-01-11T06:10:30.086Z,93.30
2024-01-11T06:12:56.824Z,93.55
2024-01-11T06:15:23.705Z,92.82
2024-01-11T06:17:50.465Z,93.35
2024-01-11T06:20:17.285Z,93.25
2024-01-11T06:22:46.192Z,93.54
2024-01-11T06:25:13.296Z,93.62
2024-01-11T06:27:43.524Z,93.18
2024-01-11T06:30:10.638Z,93.04
2024-01-11T06:32:40.634Z,92.58
2024-01-11T06:35:10.955Z,92.68
2024-01-11T06:37:41.124Z,93.59
2024-01-11T06:40:08.466Z,93.03
2024-01-11T06:42:35.734Z,93.46
2024-01-11T06:45:12.655Z,94.09
2024-01-11T06:47:40.391Z,94.07
2024-01-11T06:50:10.559Z,94.23
2024-01-11T06:52:40.582Z,94.67
2024-01-11T06:55:13.011Z,93.35
2024-01-11T06:57:39.771Z,93.45
2024-01-11T07:00:07.781Z,93.80
2024-01-11T07:02:34.550Z,92.96
2024-01-11T07:05:04.325Z,91.55
2024-01-11T07:07:31.348Z,91.83
2024-01-11T07:09:58.293Z,92.16
2024-01-11T07:12:25.491Z,91.75
2024-01-11T07:14:52.760Z,91.95
2024-01-11T07:17:21.386Z,92.32
2024-01-11T07:19:48.590Z,91.86
2024-01-11T07:22:15.362Z,91.57
2024-01-11T07:24:44.761Z,91.46
2024-01-11T07:27:11.505Z,91.10
2024-01-11T07:29:38.264Z,90.98
2024-01-11T07:32:05.694Z,90.50
2024-01-11T07:34:33.420Z,89.22
2024-01-11T07:37:00.225Z,89.11
2024-01-11T07:39:26.985Z,89.51
2024-01-11T07:41:53.759Z,88.95
2024-01-11T07:44:20.583Z,89.05
2024-01-11T07:46:53.139Z,89.58
2024-01-11T07:49:22.321Z,88.59
2024-01-11T07:51:49.872Z,90.39
2024-01-11T07:54:16.688Z,89.06
2024-01-11T07:56:44.241Z,89.24
2024-01-11T07:59:14.477Z,89.27
2024-01-11T08:01:44.264Z,89.41
2024-01-11T08:04:11.277Z,89.70
2024-01-11T08:06:38.136Z,88.59
2024-01-11T08:09:04.869Z,88.35
2024-01-11T08:11:32.771Z,89.25
2024-01-11T08:14:00.101Z,89.29
2024-01-11T08:16:26.876Z,89.58
2024-01-11T08:18:53.599Z,88.19
2024-01-11T08:21:20.293Z,88.66
2024-01-11T08:23:47.464Z,89.03
2024-01-11T08:26:15.437Z,88.56
2024-01-11T08:28:43.522Z,88.27
2024-01-11T08:31:10.728Z,87.43
2024-01-11T08:33:37.927Z,88.06
2024-01-11T08:36:06.233Z,87.39
2024-01-11T08:38:33.982Z,86.94
2024-01-11T08:41:01.878Z,87.32
2024-01-11T08:43:29.031Z,87.51
2024-01-11T08:45:56.124Z,87.16
2024-01-11T08:48:22.959Z,88.19
2024-01-11T08:51:05.292Z,87.29
2024-01-11T08:53:40.976Z,87.31
2024-01-11T08:56:13.892Z,87.09
2024-01-11T08:58:44.207Z,87.22
2024-01-11T09:01:49.772Z,87.22
2024-01-11T09:04:23.681Z,87.38
2024-01-11T09:06:50.401Z,87.74
2024-01-11T09:09:22.652Z,87.33
2024-01-11T09:11:49.346Z,88.22
2024-01-11T09:14:16.453Z,87.81
2024-01-11T09:16:46.253Z,89.60
2024-01-11T09:19:21.050Z,88.14
2024-01-11T09:21:47.804Z,89.09
2024-01-11T09:24:14.615Z,88.67
2024-01-11T09:26:41.496Z,87.71
2024-01-11T09:29:12.680Z,86.73
2024-01-11T09:31:39.618Z,87.34
2024-01-11T09:34:06.388Z,88.04
2024-01-11T09:36:33.051Z,88.04
2024-01-11T09:39:00.176Z,88.53
2024-01-11T09:41:27.569Z,87.12
2024-01-11T09:43:55.503Z,87.93
2024-01-11T09:46:24.567Z,87.49
2024-01-11T09:48:52.906Z,88.32
2024-01-11T09:51:19.643Z,88.06
2024-01-11T09:53:48.493Z,88.33
2024-01-11T09:56:21.009Z,87.96
2024-01-11T09:58:48.599Z,87.40
2024-01-11T10:01:15.709Z,88.74
2024-01-11T10:03:42.691Z,88.52
2024-01-11T10:06:09.842Z,87.91
2024-01-11T10:08:38.332Z,87.12
2024-01-11T10:11:05.276Z,87.25
2024-01-11T10:13:33.056Z,87.43
2024-01-11T10:16:15.532Z,88.05
2024-01-11T10:18:45.872Z,87.66
2024-01-11T10:21:13.697Z,86.96
2024-01-11T10:23:40.903Z,87.54
2024-01-11T10:26:10.125Z,87.49
2024-01-11T10:28:37.191Z,87.80
2024-01-11T10:31:06.978Z,87.35
2024-01-11T10:33:36.349Z,86.12
2024-01-11T10:36:07.128Z,85.07
2024-01-11T10:38:39.817Z,85.15
2024-01-11T10:41:08.176Z,86.86
2024-01-11T10:43:39.025Z,87.01
2024-01-11T10:46:06.342Z,86.34
2024-01-11T10:48:34.906Z,86.47
2024-01-11T10:51:03.236Z,86.75
2024-01-11T10:53:42.720Z,86.92
2024-01-11T10:56:11.295Z,86.31
2024-01-11T10:58:40.134Z,87.02
2024-01-11T11:01:07.596Z,86.65
2024-01-11T11:03:36.631Z,87.09
2024-01-11T11:06:05.425Z,86.85
2024-01-11T11:08:32.850Z,88.14
2024-01-11T11:11:05.469Z,89.23
2024-01-11T11:13:37.720Z,89.05
2024-01-11T11:16:04.895Z,87.87
2024-01-11T11:18:33.061Z,88.17
2024-01-11T11:21:03.753Z,88.40
2024-01-11T11:23:30.576Z,88.94
2024-01-11T11:26:03.360Z,88.48
2024-01-11T11:28:33.741Z,89.51
2024-01-11T11:31:01.300Z,88.04
2024-01-11T11:33:34.179Z,87.81
2024-01-11T11:36:07.266Z,88.24
2024-01-11T11:38:35.225Z,86.00
2024-01-11T11:41:02.818Z,85.69
2024-01-11T11:43:36.544Z,83.47
2024-01-11T11:46:05.992Z,84.33
2024-01-11T11:48:36.189Z,76.68
2024-01-11T11:51:10.150Z,80.21
2024-01-11T11:53:53.028Z,82.84
2024-01-11T11:56:21.857Z,84.30
2024-01-11T11:58:50.662Z,85.14
2024-01-11T12:01:17.968Z,86.24
2024-01-11T12:03:48.843Z,86.13
2024-01-11T12:06:16.543Z,87.34
2024-01-11T12:08:49.252Z,86.26
2024-01-11T12:11:21.325Z,86.06
2024-01-11T12:13:57.175Z,85.09
2024-01-11T12:16:23.896Z,85.54
2024-01-11T12:18:51.313Z,86.65
2024-01-11T12:21:18.694Z,86.72
2024-01-11T12:23:54.935Z,87.82
2024-01-11T12:26:25.458Z,86.43
2024-01-11T12:28:52.868Z,86.67
2024-01-11T12:31:20.075Z,86.10
2024-01-11T12:33:47.293Z,87.48
2024-01-11T12:36:14.122Z,85.80
2024-01-11T12:38:49.960Z,86.54
2024-01-11T12:41:21.030Z,86.25
2024-01-11T12:43:48.874Z,86.06
2024-01-11T12:46:16.737Z,86.19
2024-01-11T12:48:53.037Z,87.35
2024-01-11T12:51:23.929Z,87.24
2024-01-11T12:53:53.481Z,86.49
2024-01-11T12:56:20.622Z,87.53
2024-01-11T12:58:48.040Z,87.24
2024-01-11T13:01:14.972Z,87.12
2024-01-11T13:03:46.138Z,87.34
2024-01-11T13:06:13.710Z,86.50
2024-01-11T13:08:41.711Z,87.20
2024-01-11T13:11:09.153Z,87.96
2024-01-11T13:13:36.891Z,86.54
2024-01-11T13:16:20.960Z,87.45
2024-01-11T13:19:07.973Z,86.91
2024-01-11T13:21:40.084Z,87.07
2024-01-11T13:24:08.042Z,88.95
2024-01-11T13:26:36.448Z,88.26
2024-01-11T13:29:04.369Z,89.89
2024-01-11T13:31:31.075Z,88.41
2024-01-11T13:33:58.156Z,88.59
2024-01-11T13:36:29.605Z,90.03
2024-01-11T13:39:09.062Z,90.84
2024-01-11T13:42:00.769Z,91.89
2024-01-11T13:44:27.508Z,90.46
2024-01-11T13:46:57.127Z,90.50
2024-01-11T13:49:25.046Z,90.08
2024-01-11T13:52:00.990Z,90.50
2024-01-11T13:54:33.483Z,90.34
2024-01-11T13:57:00.260Z,90.62
2024-01-11T13:59:27.586Z,89.51
2024-01-11T14:01:56.010Z,89.39
2024-01-11T14:04:22.772Z,90.01
2024-01-11T14:06:51.991Z,90.44
2024-01-11T14:09:22.405Z,93.00
2024-01-11T14:11:49.172Z,92.73
2024-01-11T14:14:20.238Z,91.84
2024-01-11T14:16:52.852Z,91.83
2024-01-11T14:19:25.836Z,92.38
2024-01-11T14:21:57.253Z,92.55
2024-01-11T14:24:29.808Z,93.81
2024-01-11T14:27:05.138Z,93.47
2024-01-11T14:29:31.900Z,93.20
2024-01-11T14:31:58.603Z,94.25
2024-01-11T14:34:28.385Z,94.88
2024-01-11T14:36:55.661Z,95.43
2024-01-11T14:39:22.529Z,94.97
2024-01-11T14:41:49.315Z,94.05
2024-01-11T14:44:16.502Z,93.30
2024-01-11T14:46:43.297Z,94.01
2024-01-11T14:49:10.098Z,93.95
2024-01-11T14:51:36.938Z,93.73
2024-01-11T14:54:03.628Z,92.61
2024-01-11T14:56:31.489Z,94.36
2024-01-11T14:58:58.349Z,93.64
2024-01-11T15:01:25.222Z,94.60
2024-01-11T15:03:51.931Z,94.56
2024-01-11T15:06:18.954Z,95.17
2024-01-11T15:08:45.895Z,95.04
2024-01-11T15:11:12.795Z,95.40
2024-01-11T15:13:45.782Z,94.14
2024-01-11T15:16:12.600Z,95.28
2024-01-11T15:18:39.417Z,94.98
2024-01-11T15:21:06.269Z,95.14
2024-01-11T15:23:33.236Z,95.66
2024-01-11T15:26:00.033Z,94.83
2024-01-11T15:28:26.941Z,94.71
2024-01-11T15:30:53.905Z,95.70
2024-01-11T15:33:21.088Z,95.65
2024-01-11T15:35:48.104Z,95.28
2024-01-11T15:38:14.907Z,95.64
2024-01-11T15:40:41.610Z,97.88
2024-01-11T15:43:08.321Z,96.37
2024-01-11T15:45:36.930Z,95.54
2024-01-11T15:48:05.094Z,95.23
2024-01-11T15:50:32.626Z,94.77
2024-01-11T15:52:59.805Z,94.72
2024-01-11T15:55:26.591Z,95.85
2024-01-11T15:57:57.678Z,95.97
2024-01-11T16:00:25.818Z,94.92
2024-01-11T16:02:52.687Z,96.15
2024-01-11T16:05:19.679Z,95.82
2024-01-11T16:07:46.599Z,94.98
2024-01-11T16:10:13.498Z,96.26
2024-01-11T16:12:41.258Z,97.44
2024-01-11T16:15:08.408Z,97.90
2024-01-11T16:17:35.183Z,97.20
2024-01-11T16:20:02.154Z,96.76
2024-01-11T16:22:29.081Z,97.79
2024-01-11T16:24:55.752Z,96.23
2024-01-11T16:27:22.413Z,95.92
2024-01-11T16:29:50.897Z,96.52
2024-01-11T16:32:17.738Z,95.75
2024-01-11T16:34:44.455Z,95.40
2024-01-11T16:37:11.194Z,95.53
2024-01-11T16:39:38.255Z,96.17
2024-01-11T16:42:05.220Z,94.95
2024-01-11T16:44:32.173Z,95.84
2024-01-11T16:46:58.849Z,96.27
2024-01-11T16:49:25.612Z,96.33
2024-01-11T16:51:52.418Z,95.78
2024-01-11T16:54:19.975Z,96.58
2024-01-11T16:56:47.548Z,97.38
2024-01-11T16:59:14.900Z,96.91
2024-01-11T17:01:41.817Z,97.76
2024-01-11T17:04:10.953Z,97.81
2024-01-11T17:06:41.000Z,97.00
2024-01-11T17:09:07.668Z,97.37
2024-01-11T17:11:34.776Z,97.56
2024-01-11T17:14:01.524Z,98.49
2024-01-11T17:16:28.182Z,97.40
2024-01-11T17:18:55.095Z,98.40
2024-01-11T17:21:21.795Z,97.37
2024-01-11T17:23:48.814Z,97.81
2024-01-11T17:26:15.551Z,97.72
2024-01-11T17:28:42.433Z,98.11
2024-01-11T17:31:09.139Z,97.08
2024-01-11T17:33:36.132Z,98.35
2024-01-11T17:36:03.246Z,97.33
2024-01-11T17:38:30.051Z,99.44
2024-01-11T17:40:56.760Z,99.01
2024-01-11T17:43:23.473Z,100.00
2024-01-11T17:45:50.276Z,99.50
2024-01-11T17:48:17.352Z,99.40
2024-01-11T17:50:44.179Z,98.54
2024-01-11T17:53:11.258Z,99.21
2024-01-11T17:55:38.165Z,99.22
2024-01-11T17:58:04.852Z,98.69
2024-01-11T18:00:31.596Z,98.68
2024-01-11T18:02:58.504Z,98.40
2024-01-11T18:05:25.781Z,99.58
2024-01-11T18:07:54.585Z,99.40
2024-01-11T18:10:21.269Z,99.23
2024-01-11T18:12:47.982Z,99.29
2024-01-11T18:15:14.700Z,99.57
2024-01-11T18:17:41.752Z,99.77
2024-01-11T18:20:09.403Z,100.00
2024-01-11T18:22:37.088Z,100.00
2024-01-11T18:25:04.409Z,99.83
2024-01-11T18:27:31.210Z,99.16
2024-01-11T18:29:58.120Z,98.69
2024-01-11T18:32:24.990Z,99.00
2024-01-11T18:34:51.744Z,98.62
2024-01-11T18:37:18.449Z,99.84
2024-01-11T18:39:45.174Z,100.00
2024-01-11T18:42:11.900Z,99.89
2024-01-11T18:44:38.780Z,100.00
2024-01-11T18:47:05.810Z,100.00
2024-01-11T18:49:33.557Z,100.00
2024-01-11T18:52:00.318Z,100.00
2024-01-11T18:54:27.086Z,100.00
2024-01-11T18:56:53.896Z,100.00
2024-01-11T18:59:20.676Z,100.00
2024-01-11T19:01:48.442Z,100.00
2024-01-11T19:04:16.124Z,100.00
2024-01-11T19:06:42.979Z,100.00
2024-01-11T19:09:11.140Z,100.00
2024-01-11T19:11:37.847Z,100.00
2024-01-11T19:14:04.594Z,100.00
2024-01-11T19:16:31.257Z,100.00
2024-01-11T19:18:58.299Z,100.00
2024-01-11T19:21:25.078Z,100.00
2024-01-11T19:23:51.930Z,99.91
2024-01-11T19:26:18.775Z,100.00
2024-01-11T19:28:45.572Z,99.97
2024-01-11T19:31:12.361Z,99.93
2024-01-11T19:33:39.068Z,100.00
2024-01-11T19:36:06.165Z,100.00
2024-01-11T19:38:32.962Z,100.00
2024-01-11T19:40:59.886Z,100.00
2024-01-11T19:43:26.559Z,100.00
2024-01-11T19:45:53.849Z,100.00
2024-01-11T19:48:21.532Z,100.00
2024-01-11T19:50:48.587Z,100.00
2024-01-11T19:53:15.460Z,100.00
2024-01-11T19:55:42.188Z,100.00
2024-01-11T19:58:08.865Z,100.00
2024-01-11T20:00:35.714Z,100.00
2024-01-11T20:03:02.506Z,100.00
2024-01-11T20:05:29.352Z,100.00
2024-01-11T20:07:56.201Z,100.00
2024-01-11T20:10:22.987Z,100.00
2024-01-11T20:12:49.746Z,100.00
2024-01-11T20:15:16.603Z,100.00
2024-01-11T20:17:43.332Z,100.00
2024-01-11T20:20:10.533Z,100.00
2024-01-11T20:22:37.338Z,100.00
2024-01-11T20:25:07.359Z,100.00
2024-01-11T20:27:35.690Z,100.00
2024-01-11T20:30:02.926Z,100.00
2024-01-11T20:32:30.032Z,100.00
2024-01-11T20:34:56.882Z,100.00
2024-01-11T20:37:23.630Z,100.00
2024-01-11T20:39:50.397Z,100.00
2024-01-11T20:42:17.255Z,100.00
2024-01-11T20:44:44.025Z,100.00
2024-01-11T20:47:10.846Z,100.00
2024-01-11T20:49:37.698Z,100.00
2024-01-11T20:52:04.702Z,100.00
2024-01-11T20:54:31.409Z,100.00
2024-01-11T20:56:58.160Z,100.00
2024-01-11T20:59:25.019Z,100.00
2024-01-11T21:01:51.724Z,100.00
2024-01-11T21:04:18.438Z,100.00
2024-01-11T21:06:45.728Z,100.00
2024-01-11T21:09:12.797Z,100.00
2024-01-11T21:11:39.648Z,100.00
2024-01-11T21:14:06.450Z,100.00
2024-01-11T21:16:33.153Z,100.00
2024-01-11T21:19:00.047Z,100.00
2024-01-11T21:21:26.853Z,99.75
2024-01-11T21:23:53.623Z,100.00
2024-01-11T21:26:20.336Z,100.00
2024-01-11T21:28:47.143Z,100.00
2024-01-11T21:31:13.880Z,100.00
2024-01-11T21:33:44.191Z,99.89
2024-01-11T21:36:11.903Z,99.59
2024-01-11T21:38:38.927Z,99.96
2024-01-11T21:41:05.960Z,99.95
2024-01-11T21:43:32.741Z,99.34
2024-01-11T21:45:59.405Z,99.11
2024-01-11T21:48:26.446Z,99.40
2024-01-11T21:50:53.444Z,99.97
2024-01-11T21:53:20.303Z,99.74
2024-01-11T21:55:46.978Z,99.62
2024-01-11T21:58:13.838Z,99.09
2024-01-11T22:00:40.540Z,98.69
2024-01-11T22:03:07.472Z,98.70
2024-01-11T22:05:36.105Z,98.76
2024-01-11T22:08:02.916Z,99.09
2024-01-11T22:10:29.583Z,99.47
2024-01-11T22:12:56.360Z,99.45
2024-01-11T22:15:23.037Z,98.58
2024-01-11T22:17:49.914Z,98.21
2024-01-11T22:20:16.972Z,98.28
2024-01-11T22:22:43.743Z,97.62
2024-01-11T22:25:10.510Z,97.90
2024-01-11T22:27:37.202Z,98.11
2024-01-11T22:30:05.137Z,97.54
2024-01-11T22:32:31.922Z,97.90
2024-01-11T22:34:58.604Z,97.36
2024-01-11T22:37:25.325Z,98.39
2024-01-11T22:39:51.984Z,97.63
2024-01-11T22:42:18.677Z,97.66
2024-01-11T22:44:45.453Z,98.92
2024-01-11T22:47:12.376Z,98.17
2024-01-11T22:49:39.298Z,97.85
2024-01-11T22:52:07.598Z,97.08
2024-01-11T22:54:35.122Z,97.09
2024-01-11T22:57:02.763Z,97.19
2024-01-11T22:59:29.585Z,98.27
2024-01-11T23:01:56.296Z,97.46
2024-01-11T23:04:23.161Z,97.67
2024-01-11T23:06:49.894Z,96.91
2024-01-11T23:09:16.574Z,96.64
2024-01-11T23:11:43.295Z,96.18
2024-01-11T23:14:10.177Z,96.25
2024-01-11T23:16:36.938Z,95.14
2024-01-11T23:19:03.884Z,96.61
2024-01-11T23:21:30.612Z,97.33
2024-01-11T23:23:57.401Z,95.95
2024-01-11T23:26:24.211Z,97.94
2024-01-11T23:28:50.906Z,98.65
2024-01-11T23:31:17.646Z,97.77
2024-01-11T23:33:44.583Z,97.40
2024-01-11T23:36:12.892Z,96.83
2024-01-11T23:38:40.276Z,97.72
2024-01-11T23:41:08.381Z,96.37
2024-01-11T23:43:35.371Z,96.11
2024-01-11T23:46:02.049Z,96.46
2024-01-11T23:48:29.278Z,95.77
2024-01-11T23:50:56.210Z,95.67
2024-01-11T23:53:22.971Z,96.66
2024-01-11T23:55:49.745Z,95.84
2024-01-11T23:58:16.417Z,95.98
